Clarissa, Minnesota
Current Conditions -  °F | °C
As of 12:28 PM on Friday 19 Dec 2014 (Local Time) from K14Y Reporting Station
Haze Haze  
Wind Chill: 17°   Ceiling: 300
Heat Index: 25°   Visibility: 1mi
Dew Point: 23°   Wind: 7mph
Humidity: 93%   Direction: 120°ESE
Pressure: 30.12"   Gusts: NA
Location:  46.13°N, 94.95°W
Report Text: K14Y 191828Z AUTO 12006KT 1SM BR OVC003 M04/M05 A3012 RMK AO2
Loading
Personal Weather Stations






























Interactive Weather Map New forecast layout! Learn more

10-Day Weather Forecast

Advertisements
Track Severe Weather on mobile